createdAt,value
2018-08-09T00:02:05.709Z,100757.75
2018-08-09T00:04:35.574Z,100761.14
2018-08-09T00:07:05.877Z,100756.79
2018-08-09T00:09:35.834Z,100754.34
2018-08-09T00:12:05.844Z,100749.25
2018-08-09T00:14:35.862Z,100741.48
2018-08-09T00:17:06.186Z,100733.86
2018-08-09T00:19:35.981Z,100732.40
2018-08-09T00:22:06.013Z,100739.65
2018-08-09T00:24:35.998Z,100743.98
2018-08-09T00:27:06.190Z,100743.36
2018-08-09T00:29:36.087Z,100745.28
2018-08-09T00:32:05.973Z,100751.77
2018-08-09T00:34:35.962Z,100750.94
2018-08-09T00:37:06.382Z,100756.67
2018-08-09T00:39:36.515Z,100752.25
2018-08-09T00:42:06.402Z,100747.82
2018-08-09T00:44:36.291Z,100749.15
2018-08-09T00:47:06.712Z,100757.26
2018-08-09T00:49:36.718Z,100746.52
2018-08-09T00:52:06.758Z,100739.50
2018-08-09T00:54:36.895Z,100739.91
2018-08-09T00:57:06.866Z,100746.16
2018-08-09T00:59:36.889Z,100739.16
2018-08-09T01:02:11.980Z,100732.80
2018-08-09T01:04:42.197Z,100737.54
2018-08-09T01:07:12.103Z,100735.39
2018-08-09T01:09:42.528Z,100740.81
2018-08-09T01:12:12.550Z,100742.42
2018-08-09T01:14:42.845Z,100739.64
2018-08-09T01:17:13.169Z,100735.18
2018-08-09T01:19:43.202Z,100734.55
2018-08-09T01:22:13.445Z,100728.81
2018-08-09T01:24:43.484Z,100720.52
2018-08-09T01:27:13.692Z,100718.81
2018-08-09T01:29:43.617Z,100710.66
2018-08-09T01:32:13.564Z,100706.09
2018-08-09T01:34:43.518Z,100702.59
2018-08-09T01:37:13.911Z,100704.31
2018-08-09T01:39:43.780Z,100710.39
2018-08-09T01:42:30.121Z,100712.78
2018-08-09T01:45:00.116Z,100712.64
2018-08-09T01:47:30.210Z,100711.97
2018-08-09T01:50:00.395Z,100709.88
2018-08-09T01:52:31.226Z,100704.62
2018-08-09T01:55:01.444Z,100706.68
2018-08-09T01:57:32.379Z,100697.72
2018-08-09T02:00:02.718Z,100700.64
2018-08-09T02:02:32.743Z,100703.12
2018-08-09T02:05:02.778Z,100693.70
2018-08-09T02:07:33.078Z,100694.32
2018-08-09T02:10:03.112Z,100691.56
2018-08-09T02:12:33.474Z,100689.47
2018-08-09T02:15:03.342Z,100694.75
2018-08-09T02:17:33.278Z,100694.83
2018-08-09T02:20:03.252Z,100691.30
2018-08-09T02:22:33.434Z,100691.63
2018-08-09T02:25:03.375Z,100682.91
2018-08-09T02:27:33.288Z,100680.42
2018-08-09T02:30:03.115Z,100668.13
2018-08-09T02:32:33.270Z,100668.91
2018-08-09T02:35:03.538Z,100668.06
2018-08-09T02:37:33.553Z,100664.14
2018-08-09T02:40:03.466Z,100653.85
2018-08-09T02:42:33.378Z,100654.00
2018-08-09T02:45:03.423Z,100661.71
2018-08-09T02:47:33.444Z,100661.27
2018-08-09T02:50:03.306Z,100658.73
2018-08-09T02:52:33.596Z,100657.03
2018-08-09T02:55:03.811Z,100667.58
2018-08-09T02:57:33.778Z,100673.19
2018-08-09T03:00:03.683Z,100675.69
2018-08-09T03:02:33.896Z,100668.96
2018-08-09T03:05:03.800Z,100664.39
2018-08-09T03:07:33.787Z,100657.61
2018-08-09T03:10:03.803Z,100645.43
2018-08-09T03:12:34.066Z,100646.00
2018-08-09T03:15:03.959Z,100639.56
2018-08-09T03:17:33.855Z,100632.13
2018-08-09T03:20:03.954Z,100642.36
2018-08-09T03:22:33.819Z,100639.45
2018-08-09T03:25:03.782Z,100647.42
2018-08-09T03:27:34.018Z,100642.45
2018-08-09T03:30:04.063Z,100642.32
2018-08-09T03:32:34.090Z,100634.46
2018-08-09T03:35:04.062Z,100625.53
2018-08-09T03:37:34.014Z,100629.27
2018-08-09T03:40:03.974Z,100645.23
2018-08-09T03:42:34.028Z,100646.28
2018-08-09T03:45:04.001Z,100647.75
2018-08-09T03:47:33.965Z,100662.27
2018-08-09T03:50:04.673Z,100660.03
2018-08-09T03:52:34.553Z,100655.30
2018-08-09T03:55:05.176Z,100655.80
2018-08-09T03:57:35.130Z,100647.80
2018-08-09T04:00:07.197Z,100640.56
2018-08-09T04:02:37.481Z,100638.76
2018-08-09T04:05:08.354Z,100637.55
2018-08-09T04:07:38.110Z,100644.75
2018-08-09T04:10:08.735Z,100641.38
2018-08-09T04:12:38.762Z,100642.95
2018-08-09T04:15:10.489Z,100653.63
2018-08-09T04:17:40.478Z,100661.69
2018-08-09T04:20:10.539Z,100651.47
2018-08-09T04:22:40.351Z,100647.52
2018-08-09T04:25:11.117Z,100648.14
2018-08-09T04:27:41.149Z,100652.31
2018-08-09T04:30:11.091Z,100649.00
2018-08-09T04:32:41.089Z,100645.29
2018-08-09T04:35:11.291Z,100650.82
2018-08-09T04:37:41.191Z,100654.06
2018-08-09T04:40:11.389Z,100652.39
2018-08-09T04:42:41.290Z,100650.48
2018-08-09T04:45:11.978Z,100657.17
2018-08-09T04:47:41.957Z,100653.27
2018-08-09T04:50:12.867Z,100651.19
2018-08-09T04:52:42.962Z,100643.05
2018-08-09T04:55:13.284Z,100641.01
2018-08-09T04:57:43.318Z,100637.64
2018-08-09T05:00:13.203Z,100634.45
2018-08-09T05:02:43.384Z,100636.13
2018-08-09T05:05:13.395Z,100629.16
2018-08-09T05:07:43.618Z,100632.11
2018-08-09T05:10:13.594Z,100630.22
2018-08-09T05:12:44.062Z,100630.56
2018-08-09T05:15:14.754Z,100628.91
2018-08-09T05:17:45.258Z,100620.03
2018-08-09T05:20:15.875Z,100612.56
2018-08-09T05:22:46.024Z,100616.87
2018-08-09T05:25:16.106Z,100613.52
2018-08-09T05:27:46.109Z,100618.32
2018-08-09T05:30:18.148Z,100619.00
2018-08-09T05:32:48.188Z,100618.39
2018-08-09T05:35:26.633Z,100618.02
2018-08-09T05:37:57.381Z,100618.09
2018-08-09T05:40:27.458Z,100605.31
2018-08-09T05:42:57.606Z,100606.47
2018-08-09T05:45:27.550Z,100602.66
2018-08-09T05:48:01.246Z,100606.37
2018-08-09T05:50:31.283Z,100596.16
2018-08-09T05:53:01.405Z,100582.50
2018-08-09T05:55:33.384Z,100583.62
2018-08-09T05:58:03.816Z,100569.27
2018-08-09T06:00:33.695Z,100569.27
2018-08-09T06:03:03.512Z,100574.55
2018-08-09T06:05:33.915Z,100577.96
2018-08-09T06:08:03.997Z,100577.77
2018-08-09T06:10:33.986Z,100576.80
2018-08-09T06:13:04.130Z,100580.13
2018-08-09T06:15:34.202Z,100575.13
2018-08-09T06:18:04.433Z,100572.83
2018-08-09T06:20:34.490Z,100568.16
2018-08-09T06:23:04.385Z,100564.43
2018-08-09T06:25:34.517Z,100563.66
2018-08-09T06:28:04.793Z,100566.30
2018-08-09T06:30:37.194Z,100561.45
2018-08-09T06:35:37.358Z,100558.25
2018-08-09T06:38:07.685Z,100558.80
2018-08-09T06:40:39.635Z,100552.59
2018-08-09T06:43:09.774Z,100542.64
2018-08-09T06:46:02.747Z,100543.38
2018-08-09T06:48:32.860Z,100544.16
2018-08-09T06:51:03.775Z,100542.73
2018-08-09T06:53:34.019Z,100541.27
2018-08-09T06:56:04.104Z,100546.95
2018-08-09T06:58:34.326Z,100542.68
2018-08-09T07:01:04.480Z,100542.29
2018-08-09T07:03:34.732Z,100532.63
2018-08-09T07:06:04.608Z,100525.82
2018-08-09T07:11:36.185Z,100519.84
2018-08-09T07:28:08.491Z,100522.69
2018-08-09T07:30:38.522Z,100528.76
2018-08-09T07:33:08.550Z,100537.39
2018-08-09T07:36:01.668Z,100532.41
2018-08-09T07:38:31.546Z,100520.61
2018-08-09T07:41:01.651Z,100509.75
2018-08-09T07:43:31.679Z,100507.34
2018-08-09T07:46:01.534Z,100503.66
2018-08-09T07:49:02.916Z,100491.20
2018-08-09T07:54:40.622Z,100494.37
2018-08-09T07:57:10.673Z,100494.11
2018-08-09T07:59:40.644Z,100489.98
2018-08-09T08:02:10.480Z,100477.48
2018-08-09T08:04:40.403Z,100479.36
2018-08-09T08:07:15.595Z,100483.93
2018-08-09T08:09:46.420Z,100479.38
2018-08-09T08:12:18.316Z,100479.57
2018-08-09T08:14:48.331Z,100475.13
2018-08-09T08:17:18.400Z,100474.20
2018-08-09T08:19:48.274Z,100473.70
2018-08-09T08:22:18.099Z,100472.75
2018-08-09T08:24:48.954Z,100476.58
2018-08-09T08:27:18.848Z,100471.07
2018-08-09T08:29:48.579Z,100461.39
2018-08-09T08:32:18.542Z,100460.45
2018-08-09T08:34:48.244Z,100456.39
2018-08-09T08:37:18.185Z,100449.75
2018-08-09T08:39:48.130Z,100439.92
2018-08-09T08:42:18.059Z,100423.22
2018-08-09T08:44:47.851Z,100419.99
2018-08-09T08:47:18.292Z,100411.66
2018-08-09T08:49:48.130Z,100393.98
2018-08-09T08:52:17.991Z,100394.75
2018-08-09T08:54:47.912Z,100401.61
2018-08-09T08:57:17.698Z,100397.12
2018-08-09T08:59:47.573Z,100395.11
2018-08-09T09:02:18.106Z,100390.62
2018-08-09T09:04:48.905Z,100396.48
2018-08-09T09:07:19.242Z,100394.42
2018-08-09T09:09:49.021Z,100387.81
2018-08-09T09:12:18.874Z,100386.11
2018-08-09T09:14:48.818Z,100383.41
2018-08-09T09:17:18.571Z,100386.98
2018-08-09T09:19:49.480Z,100381.71
2018-08-09T09:22:19.686Z,100371.75
2018-08-09T09:24:49.497Z,100374.03
2018-08-09T09:27:19.331Z,100367.14
2018-08-09T09:29:49.172Z,100363.15
2018-08-09T09:32:19.190Z,100357.30
2018-08-09T09:34:49.087Z,100342.43
2018-08-09T09:37:19.555Z,100339.50
2018-08-09T09:39:49.478Z,100333.73
2018-08-09T10:06:26.929Z,100254.30
2018-08-09T10:08:56.718Z,100242.11
2018-08-09T10:11:27.847Z,100229.16
2018-08-09T10:13:57.704Z,100217.76
2018-08-09T10:16:30.172Z,100218.31
2018-08-09T10:18:59.930Z,100212.34
2018-08-09T10:21:30.671Z,100203.94
2018-08-09T10:24:01.031Z,100190.52
2018-08-09T10:26:30.854Z,100181.95
2018-08-09T10:29:00.612Z,100172.75
2018-08-09T10:31:31.208Z,100163.08
2018-08-09T10:34:01.655Z,100158.55
2018-08-09T10:36:32.249Z,100156.99
2018-08-09T10:39:03.187Z,100150.08
2018-08-09T10:41:33.109Z,100157.36
2018-08-09T10:44:02.863Z,100156.48
2018-08-09T10:46:33.140Z,100148.90
2018-08-09T10:49:02.995Z,100139.13
2018-08-09T10:51:32.728Z,100128.75
2018-08-09T10:54:03.355Z,100109.11
2018-08-09T10:56:33.192Z,100106.09
2018-08-09T10:59:04.662Z,100099.75
2018-08-09T11:01:34.840Z,100091.25
2018-08-09T11:04:04.686Z,100094.01
2018-08-09T11:06:34.817Z,100089.95
2018-08-09T11:09:07.293Z,100089.32
2018-08-09T11:11:37.226Z,100079.41
2018-08-09T11:14:07.942Z,100072.39
2018-08-09T11:16:37.625Z,100062.31
2018-08-09T11:19:07.623Z,100052.97
2018-08-09T11:21:37.762Z,100038.86
2018-08-09T11:24:08.247Z,100025.65
2018-08-09T11:26:38.218Z,100013.16
2018-08-09T11:29:08.083Z,100010.44
2018-08-09T11:31:37.734Z,100010.75
2018-08-09T11:34:11.007Z,100008.27
2018-08-09T11:36:40.727Z,100008.55
2018-08-09T11:39:12.500Z,99999.04
2018-08-09T11:41:42.891Z,99993.37
2018-08-09T11:44:12.963Z,99983.56
2018-08-09T11:46:42.815Z,99978.20
2018-08-09T11:49:12.682Z,99957.83
2018-08-09T11:51:42.602Z,99948.77
2018-08-09T11:54:12.593Z,99946.03
2018-08-09T11:56:42.576Z,99935.97
2018-08-09T11:59:12.272Z,99931.27
2018-08-09T12:01:44.094Z,99931.48
2018-08-09T12:07:20.217Z,99919.28
2018-08-09T12:09:50.584Z,99916.99
2018-08-09T12:12:20.939Z,99904.47
2018-08-09T12:14:51.951Z,99902.72
2018-08-09T12:17:23.551Z,99891.98
2018-08-09T12:19:53.410Z,99881.71
2018-08-09T12:22:23.154Z,99882.41
2018-08-09T12:24:53.120Z,99870.19
2018-08-09T12:27:23.056Z,99864.16
2018-08-09T12:29:52.881Z,99882.81
2018-08-09T12:35:21.833Z,99870.86
2018-08-09T12:37:51.859Z,99883.40
2018-08-09T12:40:31.614Z,99887.41
2018-08-09T12:43:02.652Z,99882.00
2018-08-09T12:45:32.557Z,99875.75
2018-08-09T12:48:02.307Z,99873.95
2018-08-09T12:50:32.308Z,99870.03
2018-08-09T12:53:03.034Z,99866.08
2018-08-09T12:55:33.055Z,99856.85
2018-08-09T12:58:02.975Z,99857.16
2018-08-09T13:00:35.582Z,99843.23
2018-08-09T13:03:05.599Z,99838.02
2018-08-09T13:05:41.067Z,99829.69
2018-08-09T13:08:14.972Z,99829.36
2018-08-09T13:10:48.529Z,99823.69
2018-08-09T13:13:21.471Z,99828.77
2018-08-09T13:15:51.566Z,99838.52
2018-08-09T13:18:23.136Z,99834.72
2018-08-09T13:20:54.171Z,99841.98
2018-08-09T13:23:27.767Z,99846.05
2018-08-09T13:26:01.019Z,99854.88
2018-08-09T13:28:31.338Z,99870.69
2018-08-09T13:31:02.417Z,99883.76
2018-08-09T13:33:32.991Z,99935.09
2018-08-09T13:36:03.240Z,99935.46
2018-08-09T13:38:33.321Z,99931.31
2018-08-09T13:41:03.644Z,99931.39
2018-08-09T13:43:33.746Z,99954.49
2018-08-09T13:46:03.859Z,99950.25
2018-08-09T13:48:34.155Z,99956.88
2018-08-09T13:51:04.788Z,99964.88
2018-08-09T13:53:34.982Z,99968.77
2018-08-09T13:56:17.300Z,99962.52
2018-08-09T13:58:47.322Z,99967.58
2018-08-09T14:01:17.990Z,99972.27
2018-08-09T14:03:49.248Z,99967.02
2018-08-09T14:06:19.388Z,99957.20
2018-08-09T14:08:49.602Z,99968.39
2018-08-09T14:11:20.411Z,100005.22
2018-08-09T14:13:50.517Z,100015.55
2018-08-09T14:16:20.594Z,100027.20
2018-08-09T14:18:54.591Z,100012.95
2018-08-09T14:21:35.231Z,100020.58
2018-08-09T14:24:07.639Z,100030.55
2018-08-09T14:26:37.507Z,100030.87
2018-08-09T14:29:08.867Z,100021.73
2018-08-09T14:31:39.355Z,100016.56
2018-08-09T14:34:10.255Z,100017.99
2018-08-09T14:36:40.180Z,100036.51
2018-08-09T14:39:11.681Z,100035.69
2018-08-09T14:41:41.788Z,100025.91
2018-08-09T14:44:16.829Z,100005.91
2018-08-09T14:46:46.791Z,100000.58
2018-08-09T14:49:16.739Z,100008.19
2018-08-09T14:51:46.714Z,100015.34
2018-08-09T14:54:39.701Z,100024.28
2018-08-09T14:57:10.757Z,100045.50
2018-08-09T14:59:41.426Z,100036.83
2018-08-09T15:02:12.629Z,100028.16
2018-08-09T15:04:42.722Z,100034.80
2018-08-09T15:07:12.553Z,100027.39
2018-08-09T15:09:42.834Z,100020.66
2018-08-09T15:12:12.686Z,100028.59
2018-08-09T15:14:42.564Z,100020.01
2018-08-09T15:17:12.603Z,100006.18
2018-08-09T15:19:42.515Z,100018.02
2018-08-09T15:22:13.249Z,100007.64
2018-08-09T15:24:43.169Z,100007.94
2018-08-09T15:27:15.533Z,100001.48
2018-08-09T15:29:45.787Z,100006.00
2018-08-09T15:32:22.383Z,99990.70
2018-08-09T15:34:54.484Z,99995.40
2018-08-09T15:37:24.566Z,99993.18
2018-08-09T15:39:54.538Z,99993.00
2018-08-09T15:42:24.423Z,100005.06
2018-08-09T15:44:56.332Z,99995.70
2018-08-09T15:47:26.858Z,100007.33
2018-08-09T15:49:56.610Z,100006.37
2018-08-09T15:52:26.772Z,100011.08
2018-08-09T15:54:56.892Z,100007.02
2018-08-09T15:57:26.770Z,99998.26
2018-08-09T15:59:56.994Z,100000.50
2018-08-09T16:02:26.970Z,100012.94
2018-08-09T16:04:57.152Z,100009.70
2018-08-09T16:07:27.069Z,100002.07
2018-08-09T16:09:57.116Z,100005.11
2018-08-09T16:12:26.995Z,100005.23
2018-08-09T16:14:56.847Z,100003.14
2018-08-09T16:17:28.761Z,100006.71
2018-08-09T16:19:58.515Z,100011.39
2018-08-09T16:22:28.617Z,99991.29
2018-08-09T16:24:58.469Z,99989.90
2018-08-09T16:27:28.415Z,99988.02
2018-08-09T16:33:08.113Z,99997.22
2018-08-09T16:35:37.910Z,99993.34
2018-08-09T16:38:07.814Z,99983.31
2018-08-09T16:40:37.651Z,99982.05
2018-08-09T16:43:08.631Z,99982.08
2018-08-09T16:45:38.413Z,99979.11
2018-08-09T16:48:08.509Z,99974.41
2018-08-09T16:50:50.699Z,99973.30
2018-08-09T16:53:20.650Z,99963.55
2018-08-09T16:55:50.437Z,99966.52
2018-08-09T16:58:20.615Z,99963.75
2018-08-09T17:00:51.087Z,99963.75
2018-08-09T17:03:26.798Z,99960.22
2018-08-09T17:05:56.608Z,99979.97
2018-08-09T17:11:26.849Z,99975.84
2018-08-09T17:13:56.789Z,99977.47
2018-08-09T17:16:26.698Z,99975.22
2018-08-09T17:18:56.509Z,99972.73
2018-08-09T17:21:26.383Z,99976.68
2018-08-09T17:24:02.298Z,99986.86
2018-08-09T17:26:32.394Z,99982.70
2018-08-09T17:29:02.684Z,99971.88
2018-08-09T17:35:31.642Z,99969.05
2018-08-09T17:38:26.561Z,99969.13
2018-08-09T17:40:57.915Z,99965.77
2018-08-09T17:43:28.419Z,99961.13
2018-08-09T17:46:32.271Z,99968.14
2018-08-09T17:49:14.315Z,99985.30
2018-08-09T17:51:44.499Z,99986.61
2018-08-09T17:54:15.428Z,99988.25
2018-08-09T17:56:45.850Z,99995.72
2018-08-09T17:59:16.512Z,99987.33
2018-08-09T18:01:46.387Z,99994.41
2018-08-09T18:04:16.395Z,99996.67
2018-08-09T18:09:46.134Z,100002.34
2018-08-09T18:12:16.170Z,100004.20
2018-08-09T18:15:14.241Z,100009.87
2018-08-09T18:17:45.187Z,100003.59
2018-08-09T18:20:17.223Z,100017.43
2018-08-09T18:22:47.161Z,100040.77
2018-08-09T18:25:17.172Z,100072.95
2018-08-09T18:27:46.989Z,100082.69
2018-08-09T18:30:18.517Z,100100.38
2018-08-09T18:32:48.541Z,100107.02
2018-08-09T18:36:26.840Z,100105.37
2018-08-09T18:38:56.691Z,100127.33
2018-08-09T18:44:49.025Z,100145.11
2018-08-09T18:47:18.980Z,100144.48
2018-08-09T18:49:49.302Z,100151.05
2018-08-09T18:52:19.276Z,100156.23
2018-08-09T18:54:49.870Z,100167.05
2018-08-09T18:57:20.360Z,100175.75
2018-08-09T18:59:50.415Z,100192.58
2018-08-09T19:02:20.989Z,100182.21
2018-08-09T19:04:51.264Z,100193.21
2018-08-09T19:07:21.773Z,100204.36
2018-08-09T19:09:51.666Z,100197.91
2018-08-09T19:12:21.701Z,100206.67
2018-08-09T19:14:51.442Z,100215.65
2018-08-09T19:31:45.617Z,100269.98
2018-08-09T19:34:15.558Z,100270.87
2018-08-09T19:36:45.502Z,100262.00
2018-08-09T19:39:16.093Z,100258.20
2018-08-09T19:41:46.046Z,100263.23
2018-08-09T19:44:22.226Z,100257.73
2018-08-09T19:46:52.126Z,100270.98
2018-08-09T19:49:22.146Z,100277.91
2018-08-09T19:51:51.990Z,100261.95
2018-08-09T19:54:21.936Z,100266.31
2018-08-09T19:56:52.166Z,100280.98
2018-08-09T19:59:22.002Z,100283.25
2018-08-09T20:01:51.930Z,100283.72
2018-08-09T20:04:21.861Z,100280.55
2018-08-09T20:06:51.769Z,100280.77
2018-08-09T20:09:21.545Z,100279.73
2018-08-09T20:11:51.327Z,100283.50
2018-08-09T20:14:21.770Z,100292.13
2018-08-09T20:16:51.778Z,100292.92
2018-08-09T20:19:21.666Z,100300.19
2018-08-09T20:21:51.429Z,100307.07
2018-08-09T20:24:24.676Z,100309.11
2018-08-09T20:26:54.679Z,100309.22
2018-08-09T20:29:24.416Z,100315.91
2018-08-09T20:31:54.206Z,100310.80
2018-08-09T20:34:24.306Z,100310.81
2018-08-09T20:36:54.076Z,100322.02
2018-08-09T20:39:23.887Z,100334.12
2018-08-09T20:41:53.516Z,100335.35
2018-08-09T20:44:23.218Z,100336.66
2018-08-09T20:46:55.051Z,100342.43
2018-08-09T20:49:25.044Z,100346.23
2018-08-09T20:51:54.829Z,100343.47
2018-08-09T20:54:25.579Z,100350.41
2018-08-09T20:56:55.378Z,100351.58
2018-08-09T20:59:25.102Z,100360.21
2018-08-09T21:01:54.900Z,100372.34
2018-08-09T21:04:24.623Z,100372.78
2018-08-09T21:06:54.314Z,100380.70
2018-08-09T21:09:27.847Z,100382.65
2018-08-09T21:11:58.024Z,100392.91
2018-08-09T21:14:27.978Z,100405.53
2018-08-09T21:16:57.621Z,100394.68
2018-08-09T21:19:27.259Z,100410.55
2018-08-09T21:21:58.213Z,100398.09
2018-08-09T21:24:28.423Z,100402.93
2018-08-09T21:26:58.294Z,100425.14
2018-08-09T21:29:30.724Z,100424.06
2018-08-09T21:32:00.602Z,100433.57
2018-08-09T21:34:30.266Z,100447.27
2018-08-09T21:37:01.173Z,100448.91
2018-08-09T21:39:31.012Z,100462.65
2018-08-09T21:42:01.274Z,100479.09
2018-08-09T21:44:31.043Z,100493.22
2018-08-09T21:47:00.758Z,100486.30
2018-08-09T21:49:32.126Z,100502.11
2018-08-09T21:52:01.846Z,100500.80
2018-08-09T21:54:31.717Z,100515.52
2018-08-09T21:57:03.716Z,100526.19
2018-08-09T21:59:33.708Z,100522.08
2018-08-09T22:02:04.897Z,100534.60
2018-08-09T22:04:38.612Z,100536.98
2018-08-09T22:07:13.700Z,100540.39
2018-08-09T22:09:50.985Z,100540.84
2018-08-09T22:12:25.941Z,100532.00
2018-08-09T22:15:08.275Z,100548.39
2018-08-09T22:17:43.165Z,100547.09
2018-08-09T22:20:17.903Z,100541.56
2018-08-09T22:22:48.039Z,100554.41
2018-08-09T22:25:17.803Z,100557.84
2018-08-09T22:27:47.508Z,100565.22
2018-08-09T22:30:26.634Z,100563.06
2018-08-09T22:32:56.481Z,100577.53
2018-08-09T22:35:26.701Z,100565.17
2018-08-09T22:37:56.442Z,100573.20
2018-08-09T22:40:26.206Z,100565.58
2018-08-09T22:43:10.512Z,100566.09
2018-08-09T22:45:46.431Z,100591.02
2018-08-09T22:48:16.225Z,100593.87
2018-08-09T22:51:09.879Z,100588.58
2018-08-09T23:07:31.447Z,100627.80
2018-08-09T23:10:01.541Z,100660.11
2018-08-09T23:13:19.060Z,100658.31
2018-08-09T23:15:48.806Z,100677.62
2018-08-09T23:21:17.727Z,100679.08
2018-08-09T23:24:05.381Z,100709.11
2018-08-09T23:26:35.116Z,100714.27
2018-08-09T23:29:04.946Z,100710.44
2018-08-09T23:31:34.877Z,100711.02
2018-08-09T23:34:04.590Z,100729.14
2018-08-09T23:36:34.263Z,100729.88
2018-08-09T23:39:04.679Z,100730.90
2018-08-09T23:41:34.330Z,100746.92
2018-08-09T23:44:04.035Z,100767.48
2018-08-09T23:47:01.186Z,100759.00
2018-08-09T23:49:30.873Z,100760.02
2018-08-09T23:52:03.717Z,100768.77
2018-08-09T23:54:33.374Z,100762.73
2018-08-09T23:57:03.427Z,100784.36
